sensor_id;sensor_type;location;lat;lon;timestamp;pressure;altitude;pressure_sealevel;temperature;humidity
62634;BME280;48704;50.534;6.442;2023-12-04T00:00:22;95196.22;;;-2.71;100.00
62634;BME280;48704;50.534;6.442;2023-12-04T00:02:47;95196.63;;;-2.76;100.00
62634;BME280;48704;50.534;6.442;2023-12-04T00:05:13;95200.91;;;-2.72;100.00
62634;BME280;48704;50.534;6.442;2023-12-04T00:07:38;95195.03;;;-2.70;100.00
62634;BME280;48704;50.534;6.442;2023-12-04T00:10:04;95198.91;;;-2.67;100.00
62634;BME280;48704;50.534;6.442;2023-12-04T00:12:29;95196.63;;;-2.73;100.00
62634;BME280;48704;50.534;6.442;2023-12-04T00:14:54;95188.00;;;-2.67;100.00
62634;BME280;48704;50.534;6.442;2023-12-04T00:17:19;95184.13;;;-2.70;100.00
62634;BME280;48704;50.534;6.442;2023-12-04T00:19:45;95181.00;;;-2.68;100.00
62634;BME280;48704;50.534;6.442;2023-12-04T00:22:10;95188.81;;;-2.71;100.00
62634;BME280;48704;50.534;6.442;2023-12-04T00:24:36;95179.03;;;-2.64;100.00
62634;BME280;48704;50.534;6.442;2023-12-04T00:27:05;95177.84;;;-2.63;100.00
62634;BME280;48704;50.534;6.442;2023-12-04T00:29:30;95168.91;;;-2.67;100.00
62634;BME280;48704;50.534;6.442;2023-12-04T00:31:55;95176.34;;;-2.72;100.00
62634;BME280;48704;50.534;6.442;2023-12-04T00:34:22;95165.09;;;-2.77;100.00
62634;BME280;48704;50.534;6.442;2023-12-04T00:36:47;95167.78;;;-2.74;100.00
62634;BME280;48704;50.534;6.442;2023-12-04T00:39:13;95161.72;;;-2.95;100.00
62634;BME280;48704;50.534;6.442;2023-12-04T00:41:38;95158.88;;;-2.81;100.00
62634;BME280;48704;50.534;6.442;2023-12-04T00:44:03;95167.09;;;-2.85;100.00
62634;BME280;48704;50.534;6.442;2023-12-04T00:46:29;95163.25;;;-2.91;100.00
62634;BME280;48704;50.534;6.442;2023-12-04T00:48:54;95156.63;;;-2.90;100.00
62634;BME280;48704;50.534;6.442;2023-12-04T00:51:19;95148.47;;;-2.97;100.00
62634;BME280;48704;50.534;6.442;2023-12-04T00:53:44;95147.00;;;-3.05;100.00
62634;BME280;48704;50.534;6.442;2023-12-04T00:56:10;95154.75;;;-3.00;100.00
62634;BME280;48704;50.534;6.442;2023-12-04T00:58:36;95148.94;;;-3.02;100.00
62634;BME280;48704;50.534;6.442;2023-12-04T01:01:01;95141.53;;;-3.01;100.00
62634;BME280;48704;50.534;6.442;2023-12-04T01:03:26;95143.53;;;-3.09;100.00
62634;BME280;48704;50.534;6.442;2023-12-04T01:05:51;95140.06;;;-3.17;100.00
62634;BME280;48704;50.534;6.442;2023-12-04T01:08:17;95139.75;;;-3.29;100.00
62634;BME280;48704;50.534;6.442;2023-12-04T01:10:43;95141.66;;;-3.23;100.00
62634;BME280;48704;50.534;6.442;2023-12-04T01:13:08;95145.59;;;-3.31;100.00
62634;BME280;48704;50.534;6.442;2023-12-04T01:15:33;95148.78;;;-3.36;100.00
62634;BME280;48704;50.534;6.442;2023-12-04T01:17:59;95137.09;;;-3.37;100.00
62634;BME280;48704;50.534;6.442;2023-12-04T01:20:25;95134.81;;;-3.42;100.00
62634;BME280;48704;50.534;6.442;2023-12-04T01:22:51;95134.03;;;-3.46;100.00
62634;BME280;48704;50.534;6.442;2023-12-04T01:25:16;95124.72;;;-3.48;100.00
62634;BME280;48704;50.534;6.442;2023-12-04T01:27:41;95122.34;;;-3.43;100.00
62634;BME280;48704;50.534;6.442;2023-12-04T01:30:07;95120.81;;;-3.44;100.00
62634;BME280;48704;50.534;6.442;2023-12-04T01:32:34;95115.34;;;-3.44;100.00
62634;BME280;48704;50.534;6.442;2023-12-04T01:34:59;95118.09;;;-3.47;100.00
62634;BME280;48704;50.534;6.442;2023-12-04T01:37:24;95106.75;;;-3.39;100.00
62634;BME280;48704;50.534;6.442;2023-12-04T01:39:50;95110.28;;;-3.42;100.00
62634;BME280;48704;50.534;6.442;2023-12-04T01:42:15;95104.84;;;-3.42;100.00
62634;BME280;48704;50.534;6.442;2023-12-04T01:44:40;95101.72;;;-3.44;100.00
62634;BME280;48704;50.534;6.442;2023-12-04T01:47:06;95101.38;;;-3.49;100.00
62634;BME280;48704;50.534;6.442;2023-12-04T01:49:32;95097.09;;;-3.50;100.00
62634;BME280;48704;50.534;6.442;2023-12-04T01:51:58;95095.06;;;-3.35;100.00
62634;BME280;48704;50.534;6.442;2023-12-04T01:54:23;95094.34;;;-3.47;100.00
62634;BME280;48704;50.534;6.442;2023-12-04T01:56:49;95092.44;;;-3.50;100.00
62634;BME280;48704;50.534;6.442;2023-12-04T01:59:15;95088.16;;;-3.51;100.00
62634;BME280;48704;50.534;6.442;2023-12-04T02:01:41;95083.50;;;-3.54;100.00
62634;BME280;48704;50.534;6.442;2023-12-04T02:04:07;95083.84;;;-3.45;100.00
62634;BME280;48704;50.534;6.442;2023-12-04T02:06:32;95078.72;;;-3.35;100.00
62634;BME280;48704;50.534;6.442;2023-12-04T02:08:58;95078.66;;;-3.28;100.00
62634;BME280;48704;50.534;6.442;2023-12-04T02:11:23;95078.66;;;-3.28;100.00
62634;BME280;48704;50.534;6.442;2023-12-04T02:13:49;95070.88;;;-3.30;100.00
62634;BME280;48704;50.534;6.442;2023-12-04T02:16:16;95070.09;;;-3.30;100.00
62634;BME280;48704;50.534;6.442;2023-12-04T02:18:44;95078.66;;;-3.32;100.00
62634;BME280;48704;50.534;6.442;2023-12-04T02:21:09;95070.91;;;-3.33;100.00
62634;BME280;48704;50.534;6.442;2023-12-04T02:23:34;95069.41;;;-3.38;100.00
62634;BME280;48704;50.534;6.442;2023-12-04T02:26:05;95067.91;;;-3.46;100.00
62634;BME280;48704;50.534;6.442;2023-12-04T02:28:35;95065.56;;;-3.48;100.00
62634;BME280;48704;50.534;6.442;2023-12-04T02:31:05;95064.03;;;-3.49;100.00
62634;BME280;48704;50.534;6.442;2023-12-04T02:33:33;95064.41;;;-3.47;100.00
62634;BME280;48704;50.534;6.442;2023-12-04T02:36:00;95053.13;;;-3.49;100.00
62634;BME280;48704;50.534;6.442;2023-12-04T02:38:27;95063.19;;;-3.42;100.00
62634;BME280;48704;50.534;6.442;2023-12-04T02:40:52;95057.72;;;-3.39;100.00
62634;BME280;48704;50.534;6.442;2023-12-04T02:43:17;95051.53;;;-3.43;100.00
62634;BME280;48704;50.534;6.442;2023-12-04T02:45:43;95050.78;;;-3.47;100.00
62634;BME280;48704;50.534;6.442;2023-12-04T02:48:08;95059.34;;;-3.48;100.00
62634;BME280;48704;50.534;6.442;2023-12-04T02:50:35;95049.22;;;-3.48;100.00
62634;BME280;48704;50.534;6.442;2023-12-04T02:53:00;95043.78;;;-3.48;100.00
62634;BME280;48704;50.534;6.442;2023-12-04T02:55:25;95035.19;;;-3.43;100.00
62634;BME280;48704;50.534;6.442;2023-12-04T02:57:51;95025.09;;;-3.46;100.00
62634;BME280;48704;50.534;6.442;2023-12-04T03:00:16;95022.00;;;-3.48;100.00
62634;BME280;48704;50.534;6.442;2023-12-04T03:02:42;95018.88;;;-3.46;100.00
62634;BME280;48704;50.534;6.442;2023-12-04T03:05:07;95016.91;;;-3.46;100.00
62634;BME280;48704;50.534;6.442;2023-12-04T03:07:32;95011.81;;;-3.40;100.00
62634;BME280;48704;50.534;6.442;2023-12-04T03:09:58;95015.69;;;-3.38;100.00
62634;BME280;48704;50.534;6.442;2023-12-04T03:12:23;95016.50;;;-3.41;100.00
62634;BME280;48704;50.534;6.442;2023-12-04T03:14:48;95006.34;;;-3.37;100.00
62634;BME280;48704;50.534;6.442;2023-12-04T03:17:14;95010.97;;;-3.33;100.00
62634;BME280;48704;50.534;6.442;2023-12-04T03:19:39;95014.06;;;-3.31;100.00
62634;BME280;48704;50.534;6.442;2023-12-04T03:22:04;95000.06;;;-3.33;100.00
62634;BME280;48704;50.534;6.442;2023-12-04T03:24:30;95001.22;;;-3.31;100.00
62634;BME280;48704;50.534;6.442;2023-12-04T03:26:55;95004.00;;;-3.34;100.00
62634;BME280;48704;50.534;6.442;2023-12-04T03:29:20;94995.81;;;-3.34;100.00
62634;BME280;48704;50.534;6.442;2023-12-04T03:31:45;94996.91;;;-3.28;100.00
62634;BME280;48704;50.534;6.442;2023-12-04T03:34:11;94992.28;;;-3.31;100.00
62634;BME280;48704;50.534;6.442;2023-12-04T03:36:36;94988.38;;;-3.30;100.00
62634;BME280;48704;50.534;6.442;2023-12-04T03:39:01;94988.78;;;-3.32;100.00
62634;BME280;48704;50.534;6.442;2023-12-04T03:41:27;94988.41;;;-3.34;100.00
62634;BME280;48704;50.534;6.442;2023-12-04T03:43:52;94983.78;;;-3.37;100.00
62634;BME280;48704;50.534;6.442;2023-12-04T03:46:17;94983.38;;;-3.35;100.00
62634;BME280;48704;50.534;6.442;2023-12-04T03:48:43;94986.16;;;-3.43;100.00
62634;BME280;48704;50.534;6.442;2023-12-04T03:51:08;94976.00;;;-3.39;100.00
62634;BME280;48704;50.534;6.442;2023-12-04T03:53:33;94971.78;;;-3.47;100.00
62634;BME280;48704;50.534;6.442;2023-12-04T03:55:59;94964.44;;;-3.50;100.00
62634;BME280;48704;50.534;6.442;2023-12-04T03:58:24;94958.19;;;-3.47;100.00
62634;BME280;48704;50.534;6.442;2023-12-04T04:00:49;94957.47;;;-3.54;100.00
62634;BME280;48704;50.534;6.442;2023-12-04T04:03:15;94959.66;;;-3.39;100.00
62634;BME280;48704;50.534;6.442;2023-12-04T04:05:40;94960.03;;;-3.37;100.00
62634;BME280;48704;50.534;6.442;2023-12-04T04:08:05;94951.56;;;-3.46;100.00
62634;BME280;48704;50.534;6.442;2023-12-04T04:10:32;94951.13;;;-3.41;100.00
62634;BME280;48704;50.534;6.442;2023-12-04T04:12:58;94952.66;;;-3.40;100.00
62634;BME280;48704;50.534;6.442;2023-12-04T04:15:23;94949.19;;;-3.44;100.00
62634;BME280;48704;50.534;6.442;2023-12-04T04:17:48;94937.50;;;-3.41;100.00
62634;BME280;48704;50.534;6.442;2023-12-04T04:20:14;94933.66;;;-3.47;100.00
62634;BME280;48704;50.534;6.442;2023-12-04T04:22:39;94930.16;;;-3.47;100.00
62634;BME280;48704;50.534;6.442;2023-12-04T04:25:06;94919.66;;;-3.45;100.00
62634;BME280;48704;50.534;6.442;2023-12-04T04:27:32;94917.69;;;-3.45;100.00
62634;BME280;48704;50.534;6.442;2023-12-04T04:29:58;94923.16;;;-3.45;100.00
62634;BME280;48704;50.534;6.442;2023-12-04T04:32:23;94937.41;;;-3.33;100.00
62634;BME280;48704;50.534;6.442;2023-12-04T04:34:48;94926.88;;;-3.31;100.00
62634;BME280;48704;50.534;6.442;2023-12-04T04:37:14;94929.97;;;-3.29;100.00
62634;BME280;48704;50.534;6.442;2023-12-04T04:39:40;94924.88;;;-3.24;100.00
62634;BME280;48704;50.534;6.442;2023-12-04T04:42:05;94914.31;;;-3.18;100.00
62634;BME280;48704;50.534;6.442;2023-12-04T04:44:30;94921.31;;;-3.17;100.00
62634;BME280;48704;50.534;6.442;2023-12-04T04:46:56;94923.66;;;-3.19;100.00
62634;BME280;48704;50.534;6.442;2023-12-04T04:49:21;94928.28;;;-3.13;100.00
62634;BME280;48704;50.534;6.442;2023-12-04T04:51:47;94911.88;;;-3.09;100.00
62634;BME280;48704;50.534;6.442;2023-12-04T04:54:12;94907.94;;;-3.05;100.00
62634;BME280;48704;50.534;6.442;2023-12-04T04:56:37;94897.88;;;-3.11;100.00
62634;BME280;48704;50.534;6.442;2023-12-04T04:59:02;94905.63;;;-3.06;100.00
62634;BME280;48704;50.534;6.442;2023-12-04T05:01:28;94903.16;;;-2.97;100.00
62634;BME280;48704;50.534;6.442;2023-12-04T05:03:53;94898.06;;;-2.95;100.00
62634;BME280;48704;50.534;6.442;2023-12-04T05:06:19;94889.09;;;-2.92;100.00
62634;BME280;48704;50.534;6.442;2023-12-04T05:08:44;94899.91;;;-2.85;100.00
62634;BME280;48704;50.534;6.442;2023-12-04T05:11:10;94893.66;;;-2.82;100.00
62634;BME280;48704;50.534;6.442;2023-12-04T05:13:35;94901.47;;;-2.84;100.00
62634;BME280;48704;50.534;6.442;2023-12-04T05:16:00;94894.47;;;-2.85;100.00
62634;BME280;48704;50.534;6.442;2023-12-04T05:18:25;94894.91;;;-2.90;100.00
62634;BME280;48704;50.534;6.442;2023-12-04T05:20:51;94893.19;;;-2.77;99.81
62634;BME280;48704;50.534;6.442;2023-12-04T05:23:16;94889.28;;;-2.76;97.44
62634;BME280;48704;50.534;6.442;2023-12-04T05:25:41;94883.47;;;-2.78;98.79
62634;BME280;48704;50.534;6.442;2023-12-04T05:28:07;94866.38;;;-2.82;98.18
62634;BME280;48704;50.534;6.442;2023-12-04T05:30:32;94866.22;;;-2.67;93.98
62634;BME280;48704;50.534;6.442;2023-12-04T05:32:57;94848.66;;;-2.66;92.59
62634;BME280;48704;50.534;6.442;2023-12-04T05:35:22;94871.50;;;-2.57;89.66
62634;BME280;48704;50.534;6.442;2023-12-04T05:37:48;94850.41;;;-2.53;88.61
62634;BME280;48704;50.534;6.442;2023-12-04T05:40:14;94848.03;;;-2.51;88.16
62634;BME280;48704;50.534;6.442;2023-12-04T05:42:39;94845.53;;;-2.38;86.90
62634;BME280;48704;50.534;6.442;2023-12-04T05:45:05;94845.94;;;-2.40;85.83
62634;BME280;48704;50.534;6.442;2023-12-04T05:47:30;94841.63;;;-2.37;86.78
62634;BME280;48704;50.534;6.442;2023-12-04T05:49:55;94842.53;;;-2.47;89.47
62634;BME280;48704;50.534;6.442;2023-12-04T05:52:21;94834.91;;;-2.59;94.39
62634;BME280;48704;50.534;6.442;2023-12-04T05:54:46;94820.81;;;-2.54;87.96
62634;BME280;48704;50.534;6.442;2023-12-04T05:57:11;94826.38;;;-2.34;87.77
62634;BME280;48704;50.534;6.442;2023-12-04T05:59:37;94827.41;;;-2.25;81.35
62634;BME280;48704;50.534;6.442;2023-12-04T06:02:02;94821.94;;;-2.25;82.82
62634;BME280;48704;50.534;6.442;2023-12-04T06:04:27;94814.44;;;-2.21;81.24
62634;BME280;48704;50.534;6.442;2023-12-04T06:06:52;94815.63;;;-2.22;85.07
62634;BME280;48704;50.534;6.442;2023-12-04T06:09:18;94809.34;;;-2.19;83.92
62634;BME280;48704;50.534;6.442;2023-12-04T06:11:44;94801.78;;;-2.31;86.41
62634;BME280;48704;50.534;6.442;2023-12-04T06:14:09;94802.59;;;-2.34;87.63
62634;BME280;48704;50.534;6.442;2023-12-04T06:16:35;94796.31;;;-2.31;87.20
62634;BME280;48704;50.534;6.442;2023-12-04T06:19:01;94801.88;;;-2.38;89.19
62634;BME280;48704;50.534;6.442;2023-12-04T06:21:27;94791.69;;;-2.34;88.07
62634;BME280;48704;50.534;6.442;2023-12-04T06:23:52;94792.50;;;-2.37;87.73
62634;BME280;48704;50.534;6.442;2023-12-04T06:26:18;94794.66;;;-2.25;84.35
62634;BME280;48704;50.534;6.442;2023-12-04T06:28:45;94790.50;;;-2.33;82.61
62634;BME280;48704;50.534;6.442;2023-12-04T06:31:11;94782.19;;;-2.26;80.14
62634;BME280;48704;50.534;6.442;2023-12-04T06:33:37;94790.03;;;-2.28;82.39
62634;BME280;48704;50.534;6.442;2023-12-04T06:36:04;94794.75;;;-2.32;82.92
62634;BME280;48704;50.534;6.442;2023-12-04T06:38:32;94804.84;;;-2.29;82.50
62634;BME280;48704;50.534;6.442;2023-12-04T06:40:59;94790.84;;;-2.31;82.89
62634;BME280;48704;50.534;6.442;2023-12-04T06:43:24;94790.84;;;-2.31;82.58
62634;BME280;48704;50.534;6.442;2023-12-04T06:45:50;94786.94;;;-2.30;83.75
62634;BME280;48704;50.534;6.442;2023-12-04T06:48:16;94789.00;;;-2.38;84.16
62634;BME280;48704;50.534;6.442;2023-12-04T06:50:42;94787.75;;;-2.33;83.91
62634;BME280;48704;50.534;6.442;2023-12-04T06:53:08;94783.75;;;-2.25;83.56
62634;BME280;48704;50.534;6.442;2023-12-04T06:55:33;94789.88;;;-2.21;84.50
62634;BME280;48704;50.534;6.442;2023-12-04T06:57:58;94781.47;;;-2.30;85.29
62634;BME280;48704;50.534;6.442;2023-12-04T07:00:24;94783.25;;;-2.20;85.89
62634;BME280;48704;50.534;6.442;2023-12-04T07:02:49;94779.84;;;-2.24;87.25
62634;BME280;48704;50.534;6.442;2023-12-04T07:05:15;94776.31;;;-2.24;87.11
62634;BME280;48704;50.534;6.442;2023-12-04T07:07:40;94788.00;;;-2.24;87.90
62634;BME280;48704;50.534;6.442;2023-12-04T07:10:07;94777.56;;;-2.29;87.63
62634;BME280;48704;50.534;6.442;2023-12-04T07:12:32;94778.28;;;-2.25;88.53
62634;BME280;48704;50.534;6.442;2023-12-04T07:14:58;94773.16;;;-2.46;91.52
62634;BME280;48704;50.534;6.442;2023-12-04T07:17:23;94768.16;;;-2.51;92.76
62634;BME280;48704;50.534;6.442;2023-12-04T07:19:49;94770.06;;;-2.48;93.75
62634;BME280;48704;50.534;6.442;2023-12-04T07:22:14;94764.59;;;-2.48;93.75
62634;BME280;48704;50.534;6.442;2023-12-04T07:24:39;94764.97;;;-2.46;95.24
62634;BME280;48704;50.534;6.442;2023-12-04T07:27:05;94759.75;;;-2.37;94.12
62634;BME280;48704;50.534;6.442;2023-12-04T07:29:31;94758.88;;;-2.30;94.55
62634;BME280;48704;50.534;6.442;2023-12-04T07:31:56;94761.06;;;-2.22;94.35
62634;BME280;48704;50.534;6.442;2023-12-04T07:34:22;94753.72;;;-2.25;94.76
62634;BME280;48704;50.534;6.442;2023-12-04T07:36:47;94752.19;;;-2.26;95.16
62634;BME280;48704;50.534;6.442;2023-12-04T07:39:13;94747.19;;;-2.31;94.99
62634;BME280;48704;50.534;6.442;2023-12-04T07:41:38;94748.44;;;-2.36;95.35
62634;BME280;48704;50.534;6.442;2023-12-04T07:44:04;94749.50;;;-2.29;95.54
62634;BME280;48704;50.534;6.442;2023-12-04T07:46:29;94745.59;;;-2.28;95.44
62634;BME280;48704;50.534;6.442;2023-12-04T07:48:55;94753.22;;;-2.20;96.62
62634;BME280;48704;50.534;6.442;2023-12-04T07:51:20;94739.22;;;-2.22;97.07
62634;BME280;48704;50.534;6.442;2023-12-04T07:53:45;94743.09;;;-2.19;96.96
62634;BME280;48704;50.534;6.442;2023-12-04T07:56:12;94740.66;;;-2.14;96.97
62634;BME280;48704;50.534;6.442;2023-12-04T07:58:38;94744.09;;;-2.10;98.11
62634;BME280;48704;50.534;6.442;2023-12-04T08:01:03;94741.84;;;-2.38;100.00
62634;BME280;48704;50.534;6.442;2023-12-04T08:03:29;94737.16;;;-2.14;99.78
62634;BME280;48704;50.534;6.442;2023-12-04T08:05:54;94733.28;;;-1.93;99.48
62634;BME280;48704;50.534;6.442;2023-12-04T08:08:20;94738.88;;;-2.00;98.08
62634;BME280;48704;50.534;6.442;2023-12-04T08:10:46;94746.53;;;-1.92;98.29
62634;BME280;48704;50.534;6.442;2023-12-04T08:13:11;94734.69;;;-1.85;98.13
62634;BME280;48704;50.534;6.442;2023-12-04T08:15:36;94742.53;;;-1.87;99.21
62634;BME280;48704;50.534;6.442;2023-12-04T08:18:02;94735.66;;;-1.95;99.78
62634;BME280;48704;50.534;6.442;2023-12-04T08:20:27;94734.84;;;-1.92;100.00
62634;BME280;48704;50.534;6.442;2023-12-04T08:22:53;94735.19;;;-1.90;100.00
62634;BME280;48704;50.534;6.442;2023-12-04T08:25:20;94735.03;;;-1.83;100.00
62634;BME280;48704;50.534;6.442;2023-12-04T08:27:45;94735.31;;;-1.78;100.00
62634;BME280;48704;50.534;6.442;2023-12-04T08:30:11;94726.84;;;-1.83;100.00
62634;BME280;48704;50.534;6.442;2023-12-04T08:32:36;94726.72;;;-1.76;100.00
62634;BME280;48704;50.534;6.442;2023-12-04T08:35:02;94721.72;;;-1.81;100.00
62634;BME280;48704;50.534;6.442;2023-12-04T08:37:29;94718.44;;;-1.92;100.00
62634;BME280;48704;50.534;6.442;2023-12-04T08:39:54;94712.28;;;-1.96;100.00
62634;BME280;48704;50.534;6.442;2023-12-04T08:42:19;94706.69;;;-1.89;100.00
62634;BME280;48704;50.534;6.442;2023-12-04T08:44:44;94706.41;;;-1.75;100.00
62634;BME280;48704;50.534;6.442;2023-12-04T08:47:12;94691.56;;;-1.74;100.00
62634;BME280;48704;50.534;6.442;2023-12-04T08:49:39;94696.38;;;-1.82;100.00
62634;BME280;48704;50.534;6.442;2023-12-04T08:52:06;94694.44;;;-1.81;100.00
62634;BME280;48704;50.534;6.442;2023-12-04T08:54:32;94681.00;;;-1.72;100.00
62634;BME280;48704;50.534;6.442;2023-12-04T08:56:57;94684.56;;;-1.55;100.00
62634;BME280;48704;50.534;6.442;2023-12-04T08:59:22;94683.44;;;-1.58;100.00
62634;BME280;48704;50.534;6.442;2023-12-04T09:01:47;94672.16;;;-1.60;100.00
62634;BME280;48704;50.534;6.442;2023-12-04T09:04:13;94674.25;;;-1.48;100.00
62634;BME280;48704;50.534;6.442;2023-12-04T09:06:38;94665.97;;;-1.44;100.00
62634;BME280;48704;50.534;6.442;2023-12-04T09:09:04;94661.19;;;-1.40;100.00
62634;BME280;48704;50.534;6.442;2023-12-04T09:11:29;94658.72;;;-1.51;100.00
62634;BME280;48704;50.534;6.442;2023-12-04T09:13:54;94651.72;;;-1.52;100.00
62634;BME280;48704;50.534;6.442;2023-12-04T09:16:20;94654.75;;;-1.30;100.00
62634;BME280;48704;50.534;6.442;2023-12-04T09:18:45;94647.03;;;-1.35;100.00
62634;BME280;48704;50.534;6.442;2023-12-04T09:21:12;94646.66;;;-1.17;100.00
62634;BME280;48704;50.534;6.442;2023-12-04T09:23:37;94642.56;;;-1.09;100.00
62634;BME280;48704;50.534;6.442;2023-12-04T09:26:02;94644.25;;;-1.31;100.00
62634;BME280;48704;50.534;6.442;2023-12-04T09:28:28;94641.50;;;-1.31;100.00
62634;BME280;48704;50.534;6.442;2023-12-04T09:30:53;94645.56;;;-1.40;100.00
62634;BME280;48704;50.534;6.442;2023-12-04T09:33:19;94650.09;;;-1.49;100.00
62634;BME280;48704;50.534;6.442;2023-12-04T09:35:44;94645.06;;;-1.51;100.00
62634;BME280;48704;50.534;6.442;2023-12-04T09:38:10;94641.28;;;-1.57;100.00
62634;BME280;48704;50.534;6.442;2023-12-04T09:40:35;94631.81;;;-1.72;100.00
62634;BME280;48704;50.534;6.442;2023-12-04T09:43:01;94640.22;;;-1.63;100.00
62634;BME280;48704;50.534;6.442;2023-12-04T09:45:28;94642.69;;;-1.69;100.00
62634;BME280;48704;50.534;6.442;2023-12-04T09:47:55;94628.81;;;-1.58;100.00
62634;BME280;48704;50.534;6.442;2023-12-04T09:50:21;94633.22;;;-1.84;100.00
62634;BME280;48704;50.534;6.442;2023-12-04T09:52:51;94630.50;;;-1.64;100.00
62634;BME280;48704;50.534;6.442;2023-12-04T09:55:18;94619.78;;;-1.55;100.00
62634;BME280;48704;50.534;6.442;2023-12-04T09:57:46;94619.44;;;-1.57;100.00
62634;BME280;48704;50.534;6.442;2023-12-04T10:00:15;94610.56;;;-1.45;100.00
62634;BME280;48704;50.534;6.442;2023-12-04T10:02:42;94608.09;;;-1.75;100.00
62634;BME280;48704;50.534;6.442;2023-12-04T10:05:08;94601.72;;;-1.69;100.00
62634;BME280;48704;50.534;6.442;2023-12-04T10:07:34;94606.56;;;-1.76;100.00
62634;BME280;48704;50.534;6.442;2023-12-04T10:09:59;94604.13;;;-1.90;100.00
62634;BME280;48704;50.534;6.442;2023-12-04T10:12:25;94604.72;;;-1.63;100.00
62634;BME280;48704;50.534;6.442;2023-12-04T10:15:05;94596.41;;;-1.40;100.00
62634;BME280;48704;50.534;6.442;2023-12-04T10:17:38;94580.09;;;-1.79;100.00
62634;BME280;48704;50.534;6.442;2023-12-04T10:20:05;94578.25;;;-1.66;100.00
62634;BME280;48704;50.534;6.442;2023-12-04T10:22:36;94577.84;;;-1.84;100.00
62634;BME280;48704;50.534;6.442;2023-12-04T10:25:14;94562.84;;;-1.76;100.00
62634;BME280;48704;50.534;6.442;2023-12-04T10:27:40;94563.91;;;-1.70;100.00
62634;BME280;48704;50.534;6.442;2023-12-04T10:30:06;94558.41;;;-1.86;100.00
62634;BME280;48704;50.534;6.442;2023-12-04T10:32:36;94564.41;;;-1.75;100.00
62634;BME280;48704;50.534;6.442;2023-12-04T10:35:02;94550.09;;;-1.63;100.00
62634;BME280;48704;50.534;6.442;2023-12-04T10:37:29;94546.47;;;-1.76;100.00
62634;BME280;48704;50.534;6.442;2023-12-04T10:39:55;94548.34;;;-1.73;100.00
62634;BME280;48704;50.534;6.442;2023-12-04T10:42:25;94523.63;;;-1.66;100.00
62634;BME280;48704;50.534;6.442;2023-12-04T10:44:51;94521.78;;;-1.53;100.00
62634;BME280;48704;50.534;6.442;2023-12-04T10:47:17;94508.69;;;-1.45;100.00
62634;BME280;48704;50.534;6.442;2023-12-04T10:49:48;94500.69;;;-1.52;100.00
62634;BME280;48704;50.534;6.442;2023-12-04T10:52:14;94497.53;;;-1.51;100.00
62634;BME280;48704;50.534;6.442;2023-12-04T10:54:39;94490.78;;;-1.30;100.00
62634;BME280;48704;50.534;6.442;2023-12-04T10:57:05;94484.38;;;-1.23;100.00
62634;BME280;48704;50.534;6.442;2023-12-04T10:59:36;94483.34;;;-1.29;100.00
62634;BME280;48704;50.534;6.442;2023-12-04T11:02:05;94467.72;;;-1.29;100.00
62634;BME280;48704;50.534;6.442;2023-12-04T11:04:35;94467.13;;;-1.20;100.00
62634;BME280;48704;50.534;6.442;2023-12-04T11:07:02;94464.72;;;-1.18;100.00
62634;BME280;48704;50.534;6.442;2023-12-04T11:09:29;94456.44;;;-1.31;100.00
62634;BME280;48704;50.534;6.442;2023-12-04T11:11:57;94442.78;;;-1.47;100.00
62634;BME280;48704;50.534;6.442;2023-12-04T11:14:27;94435.84;;;-1.19;100.00
62634;BME280;48704;50.534;6.442;2023-12-04T11:16:59;94437.22;;;-1.44;100.00
62634;BME280;48704;50.534;6.442;2023-12-04T11:22:09;94420.78;;;-1.11;100.00
62634;BME280;48704;50.534;6.442;2023-12-04T11:24:35;94414.06;;;-1.23;100.00
62634;BME280;48704;50.534;6.442;2023-12-04T11:27:01;94407.84;;;-1.23;100.00
62634;BME280;48704;50.534;6.442;2023-12-04T11:29:29;94400.78;;;-1.08;100.00
62634;BME280;48704;50.534;6.442;2023-12-04T11:31:55;94408.97;;;-1.08;100.00
62634;BME280;48704;50.534;6.442;2023-12-04T11:34:20;94393.31;;;-1.20;100.00
62634;BME280;48704;50.534;6.442;2023-12-04T11:36:45;94384.72;;;-1.35;100.00
62634;BME280;48704;50.534;6.442;2023-12-04T11:39:11;94393.66;;;-1.18;100.00
62634;BME280;48704;50.534;6.442;2023-12-04T11:41:37;94371.78;;;-1.18;100.00
62634;BME280;48704;50.534;6.442;2023-12-04T11:44:03;94377.50;;;-1.13;100.00
62634;BME280;48704;50.534;6.442;2023-12-04T11:46:29;94372.16;;;-1.04;100.00
62634;BME280;48704;50.534;6.442;2023-12-04T11:49:26;94366.78;;;-1.07;100.00
62634;BME280;48704;50.534;6.442;2023-12-04T11:51:53;94359.78;;;-0.79;100.00
62634;BME280;48704;50.534;6.442;2023-12-04T11:54:20;94360.88;;;-0.77;100.00
62634;BME280;48704;50.534;6.442;2023-12-04T11:59:25;94360.13;;;-0.64;100.00
62634;BME280;48704;50.534;6.442;2023-12-04T12:01:53;94356.66;;;-0.27;100.00
62634;BME280;48704;50.534;6.442;2023-12-04T12:04:20;94352.81;;;-0.42;100.00
62634;BME280;48704;50.534;6.442;2023-12-04T12:06:45;94344.81;;;-0.49;100.00
62634;BME280;48704;50.534;6.442;2023-12-04T12:09:10;94343.78;;;-0.68;100.00
62634;BME280;48704;50.534;6.442;2023-12-04T12:11:36;94335.19;;;-0.16;100.00
62634;BME280;48704;50.534;6.442;2023-12-04T12:14:02;94333.00;;;-0.46;100.00
62634;BME280;48704;50.534;6.442;2023-12-04T12:16:27;94332.69;;;-0.48;100.00
62634;BME280;48704;50.534;6.442;2023-12-04T12:18:53;94335.19;;;-0.41;100.00
62634;BME280;48704;50.534;6.442;2023-12-04T12:21:18;94322.63;;;-0.39;100.00
62634;BME280;48704;50.534;6.442;2023-12-04T12:23:44;94309.56;;;-0.22;100.00
62634;BME280;48704;50.534;6.442;2023-12-04T12:26:09;94300.59;;;-0.35;100.00
62634;BME280;48704;50.534;6.442;2023-12-04T12:28:35;94295.22;;;-0.13;100.00
62634;BME280;48704;50.534;6.442;2023-12-04T12:31:04;94289.66;;;0.25;100.00
62634;BME280;48704;50.534;6.442;2023-12-04T12:33:29;94288.13;;;0.58;100.00
62634;BME280;48704;50.534;6.442;2023-12-04T12:35:55;94276.25;;;1.27;100.00
62634;BME280;48704;50.534;6.442;2023-12-04T12:38:20;94271.78;;;1.20;100.00
62634;BME280;48704;50.534;6.442;2023-12-04T12:40:46;94282.75;;;1.20;100.00
62634;BME280;48704;50.534;6.442;2023-12-04T12:43:11;94279.22;;;0.89;100.00
62634;BME280;48704;50.534;6.442;2023-12-04T12:45:41;94282.28;;;0.91;100.00
62634;BME280;48704;50.534;6.442;2023-12-04T12:48:10;94279.97;;;0.68;100.00
62634;BME280;48704;50.534;6.442;2023-12-04T12:50:36;94276.13;;;0.43;100.00